Liesveld, Netherlands
Current Conditions -  °F | °C
As of 9:25 PM on Sunday 25 Jan 2015 (Local Time) from EHRD Reporting Station
Overcast Overcast  
Wind Chill: 37°   Ceiling: 2500
Heat Index: 43°   Visibility: 6mi
Dew Point: 39°   Wind: 10mph
Humidity: 87%   Direction: 210°SSW
Pressure: 30.3"   Gusts: NA
Location:  51.93°N, 4.83°E
Report Text: EHRD 252025Z AUTO 21009KT 9999 OVC025 06/04 Q1026 NOSIG
Loading
Personal Weather Stations






























Interactive Weather Map New forecast layout! Learn more

10-Day Weather Forecast

Advertisements
Track Severe Weather on mobile